createdAt,value
2022-10-10T00:00:26.459Z,101616.88
2022-10-10T00:02:53.846Z,101618.47
2022-10-10T00:05:21.227Z,101613.13
2022-10-10T00:07:48.610Z,101614.06
2022-10-10T00:10:15.997Z,101602.69
2022-10-10T00:12:43.376Z,101608.16
2022-10-10T00:15:13.015Z,101616.75
2022-10-10T00:17:42.498Z,101603.66
2022-10-10T00:20:10.866Z,101607.19
2022-10-10T00:22:38.254Z,101599.03
2022-10-10T00:25:06.413Z,101601.69
2022-10-10T00:27:33.827Z,101598.31
2022-10-10T00:30:01.323Z,101598.31
2022-10-10T00:32:29.995Z,101588.34
2022-10-10T00:34:57.489Z,101589.94
2022-10-10T00:37:24.897Z,101591.19
2022-10-10T00:39:52.276Z,101589.09
2022-10-10T00:42:19.672Z,101589.22
2022-10-10T00:44:47.502Z,101576.84
2022-10-10T00:47:14.890Z,101578.66
2022-10-10T00:49:44.219Z,101573.34
2022-10-10T00:52:11.599Z,101573.34
2022-10-10T00:54:39.201Z,101571.75
2022-10-10T01:01:43.713Z,101563.75
2022-10-10T01:05:17.434Z,101564.63
2022-10-10T01:21:17.432Z,101546.19
2022-10-10T01:28:52.228Z,101540.25
2022-10-10T01:35:46.268Z,101537.47
2022-10-10T01:39:08.121Z,101536.72
2022-10-10T01:44:49.173Z,101527.25
2022-10-10T01:47:17.898Z,101522.16
2022-10-10T01:49:45.920Z,101522.16
2022-10-10T01:52:17.918Z,101517.41
2022-10-10T01:54:51.001Z,101520.22
2022-10-10T01:57:22.486Z,101522.16
2022-10-10T01:59:55.786Z,101516.56
2022-10-10T02:02:27.430Z,101519.25
2022-10-10T02:04:57.828Z,101510.38
2022-10-10T02:07:27.640Z,101515.00
2022-10-10T02:09:55.040Z,101507.81
2022-10-10T02:12:22.477Z,101498.28
2022-10-10T02:14:51.725Z,101502.66
2022-10-10T02:17:19.118Z,101497.44
2022-10-10T02:19:49.709Z,101494.47
2022-10-10T02:22:17.097Z,101498.84
2022-10-10T02:24:44.510Z,101497.91
2022-10-10T02:27:14.421Z,101490.13
2022-10-10T02:29:42.044Z,101490.38
2022-10-10T02:32:10.796Z,101485.75
2022-10-10T02:34:39.511Z,101488.19
2022-10-10T02:37:10.556Z,101471.47
2022-10-10T02:39:39.931Z,101476.66
2022-10-10T02:42:07.520Z,101466.25
2022-10-10T02:44:34.951Z,101464.28
2022-10-10T02:47:02.346Z,101465.88
2022-10-10T02:49:30.922Z,101469.25
2022-10-10T02:51:58.337Z,101461.25
2022-10-10T02:54:27.044Z,101457.59
2022-10-10T02:56:54.448Z,101454.22
2022-10-10T02:59:21.832Z,101449.84
2022-10-10T03:01:49.286Z,101451.66
2022-10-10T03:04:16.666Z,101435.94
2022-10-10T03:06:44.654Z,101426.09
2022-10-10T03:22:48.336Z,101427.94
2022-10-10T04:17:12.925Z,101352.22
2022-10-10T04:50:50.857Z,101305.31
2022-10-10T05:44:58.947Z,101245.16
2022-10-10T05:47:34.180Z,101240.69
2022-10-10T05:55:59.172Z,101236.47
2022-10-10T06:01:48.957Z,101225.53
2022-10-10T06:11:58.293Z,101217.13
2022-10-10T06:14:35.070Z,101210.09
2022-10-10T06:34:33.499Z,101213.41
2022-10-10T06:37:57.693Z,101218.09
2022-10-10T07:20:11.775Z,101210.88
2022-10-10T07:43:07.057Z,101218.59
2022-10-10T07:45:44.731Z,101209.84
2022-10-10T07:48:40.139Z,101203.28
2022-10-10T07:54:32.341Z,101204.50
2022-10-10T07:56:59.842Z,101207.63
2022-10-10T07:59:27.454Z,101209.19
2022-10-10T08:05:00.891Z,101198.78
2022-10-10T08:07:28.330Z,101197.50
2022-10-10T08:09:55.733Z,101196.66
2022-10-10T08:12:23.191Z,101200.69
2022-10-10T08:14:50.647Z,101206.47
2022-10-10T08:17:19.409Z,101196.31
2022-10-10T08:19:46.895Z,101201.66
2022-10-10T08:22:14.331Z,101195.28
2022-10-10T08:24:41.802Z,101189.13
2022-10-10T08:27:09.212Z,101193.69
2022-10-10T08:29:37.007Z,101186.13
2022-10-10T08:32:04.385Z,101187.22
2022-10-10T08:34:33.402Z,101192.81
2022-10-10T08:37:00.822Z,101195.47
2022-10-10T08:39:28.524Z,101190.00
2022-10-10T08:41:58.143Z,101190.56
2022-10-10T08:44:26.721Z,101181.88
2022-10-10T08:46:55.057Z,101180.66
2022-10-10T08:49:25.399Z,101178.94
2022-10-10T08:51:57.513Z,101174.41
2022-10-10T08:54:25.889Z,101173.56
2022-10-10T08:56:53.647Z,101168.75
2022-10-10T08:59:22.621Z,101178.56
2022-10-10T09:02:17.843Z,101171.41
2022-10-10T09:04:37.636Z,101164.63
2022-10-10T09:07:14.872Z,101163.41
2022-10-10T09:09:45.319Z,101169.59
2022-10-10T09:12:18.361Z,101170.94
2022-10-10T09:14:49.457Z,101159.44
2022-10-10T09:17:21.415Z,101168.97
2022-10-10T09:19:54.691Z,101164.00
2022-10-10T09:22:24.116Z,101150.50
2022-10-10T09:24:53.006Z,101157.22
2022-10-10T09:27:22.789Z,101141.94
2022-10-10T09:29:52.041Z,101154.09
2022-10-10T09:32:20.903Z,101147.00
2022-10-10T09:34:49.326Z,101142.91
2022-10-10T09:37:29.535Z,101140.69
2022-10-10T09:40:12.384Z,101139.97
2022-10-10T09:42:40.051Z,101127.47
2022-10-10T09:45:15.214Z,101132.25
2022-10-10T09:47:42.657Z,101138.44
2022-10-10T09:50:13.600Z,101127.47
2022-10-10T09:52:41.020Z,101134.78
2022-10-10T09:55:22.390Z,101133.94
2022-10-10T09:57:49.791Z,101127.00
2022-10-10T10:00:29.024Z,101121.91
2022-10-10T10:03:13.639Z,101106.06
2022-10-10T10:05:41.869Z,101121.53
2022-10-10T10:08:19.758Z,101121.22
2022-10-10T10:10:48.480Z,101119.69
2022-10-10T10:13:15.993Z,101124.19
2022-10-10T10:15:48.523Z,101126.56
2022-10-10T10:18:24.960Z,101107.97
2022-10-10T10:20:52.680Z,101127.34
2022-10-10T10:23:24.183Z,101133.66
2022-10-10T10:26:00.209Z,101126.50
2022-10-10T10:28:28.537Z,101131.84
2022-10-10T10:30:56.660Z,101131.72
2022-10-10T10:33:33.251Z,101127.63
2022-10-10T10:36:02.718Z,101123.84
2022-10-10T10:38:35.407Z,101127.06
2022-10-10T10:41:06.548Z,101119.47
2022-10-10T10:43:39.826Z,101116.16
2022-10-10T10:46:12.021Z,101116.75
2022-10-10T10:48:45.151Z,101111.81
2022-10-10T10:51:33.170Z,101104.78
2022-10-10T10:54:04.048Z,101098.50
2022-10-10T10:56:35.096Z,101087.66
2022-10-10T11:02:03.817Z,101088.66
2022-10-10T11:05:24.331Z,101073.53
2022-10-10T11:07:36.844Z,101079.47
2022-10-10T11:10:08.507Z,101079.47
2022-10-10T11:12:46.698Z,101059.50
2022-10-10T11:15:15.772Z,101063.16
2022-10-10T11:17:44.613Z,101056.34
2022-10-10T11:20:18.070Z,101061.50
2022-10-10T11:22:47.165Z,101064.56
2022-10-10T11:25:16.833Z,101057.25
2022-10-10T11:27:46.983Z,101057.00
2022-10-10T11:30:16.198Z,101060.97
2022-10-10T11:32:50.198Z,101052.31
2022-10-10T11:35:22.267Z,101056.13
2022-10-10T11:37:52.409Z,101049.81
2022-10-10T11:40:45.557Z,101045.31
2022-10-10T11:43:18.555Z,101044.31
2022-10-10T11:45:47.906Z,101047.84
2022-10-10T11:48:21.798Z,101048.44
2022-10-10T11:50:51.941Z,101048.44
2022-10-10T11:53:21.592Z,101049.16
2022-10-10T11:55:53.746Z,101046.34
2022-10-10T11:58:33.198Z,101040.88
2022-10-10T12:01:03.799Z,101044.09
2022-10-10T12:03:31.276Z,101038.63
2022-10-10T12:06:00.890Z,101034.25
2022-10-10T12:08:32.084Z,101031.47
2022-10-10T12:11:02.068Z,101027.81
2022-10-10T12:13:32.399Z,101049.59
2022-10-10T12:16:02.735Z,101035.13
2022-10-10T12:18:32.172Z,101019.53
2022-10-10T12:21:07.334Z,101016.56
2022-10-10T12:23:34.779Z,101008.44
2022-10-10T12:26:02.678Z,101013.78
2022-10-10T12:28:35.675Z,101019.13
2022-10-10T12:31:19.706Z,101018.84
2022-10-10T12:34:15.294Z,101033.88
2022-10-10T12:37:07.514Z,101012.66
2022-10-10T12:39:39.407Z,101030.06
2022-10-10T12:42:28.042Z,101014.63
2022-10-10T12:44:56.834Z,101033.16
2022-10-10T12:48:05.104Z,101008.19
2022-10-10T12:50:35.230Z,101018.84
2022-10-10T12:53:03.253Z,101008.88
2022-10-10T12:55:32.357Z,101023.88
2022-10-10T12:58:00.323Z,101009.69
2022-10-10T13:00:36.165Z,101002.53
2022-10-10T13:03:05.386Z,101009.56
2022-10-10T13:05:35.076Z,101000.88
2022-10-10T13:08:06.709Z,101000.03
2022-10-10T13:10:34.096Z,101007.03
2022-10-10T13:13:02.851Z,100999.88
2022-10-10T13:15:32.008Z,100997.19
2022-10-10T13:17:59.422Z,100989.91
2022-10-10T13:20:29.269Z,100987.09
2022-10-10T13:22:56.742Z,100982.59
2022-10-10T13:25:24.503Z,100983.00
2022-10-10T13:27:51.904Z,100996.91
2022-10-10T13:30:19.846Z,100983.56
2022-10-10T13:32:48.520Z,100983.44
2022-10-10T13:35:16.696Z,100976.97
2022-10-10T13:37:46.012Z,100978.50
2022-10-10T13:40:15.045Z,100978.50
2022-10-10T13:42:42.445Z,100982.16
2022-10-10T13:45:30.882Z,100984.56
2022-10-10T13:48:11.677Z,100979.50
2022-10-10T13:50:53.641Z,100981.06
2022-10-10T13:53:25.735Z,100974.44
2022-10-10T13:55:58.487Z,100980.50
2022-10-10T13:58:25.917Z,100969.13
2022-10-10T14:00:56.924Z,100975.16
2022-10-10T14:03:25.706Z,100962.06
2022-10-10T14:05:53.155Z,100963.22
2022-10-10T14:08:21.769Z,100960.56
2022-10-10T14:11:00.357Z,100961.81
2022-10-10T14:13:28.069Z,100951.13
2022-10-10T14:15:55.635Z,100959.41
2022-10-10T14:18:23.845Z,100955.31
2022-10-10T14:20:53.354Z,100950.53
2022-10-10T14:23:20.740Z,100961.06
2022-10-10T14:25:48.880Z,100953.78
2022-10-10T14:28:17.703Z,100954.75
2022-10-10T14:30:45.151Z,100946.75
2022-10-10T14:33:12.762Z,100950.25
2022-10-10T14:35:40.150Z,100947.44
2022-10-10T14:38:10.512Z,100949.41
2022-10-10T14:40:37.881Z,100944.06
2022-10-10T14:43:05.337Z,100938.75
2022-10-10T14:45:32.731Z,100932.56
2022-10-10T14:48:00.148Z,100928.06
2022-10-10T14:50:29.136Z,100922.72
2022-10-10T14:52:56.542Z,100926.38
2022-10-10T14:55:25.208Z,100927.91
2022-10-10T14:57:52.735Z,100930.72
2022-10-10T15:00:21.935Z,100922.03
2022-10-10T15:02:49.433Z,100924.69
2022-10-10T15:05:17.161Z,100926.97
2022-10-10T15:07:44.640Z,100926.38
2022-10-10T15:10:33.229Z,100926.38
2022-10-10T15:13:01.623Z,100924.69
2022-10-10T15:15:29.029Z,100935.53
2022-10-10T15:17:57.919Z,100929.50
2022-10-10T15:20:30.572Z,100935.53
2022-10-10T15:22:58.821Z,100938.34
2022-10-10T15:25:29.640Z,100935.09
2022-10-10T15:28:01.172Z,100933.13
2022-10-10T15:30:28.634Z,100934.09
2022-10-10T15:32:56.025Z,100927.66
2022-10-10T15:35:24.179Z,100935.53
2022-10-10T15:37:51.559Z,100940.16
2022-10-10T15:40:20.211Z,100943.25
2022-10-10T15:42:47.602Z,100953.78
2022-10-10T15:48:03.570Z,100948.31
2022-10-10T15:50:31.309Z,100953.09
2022-10-10T15:52:58.700Z,100959.53
2022-10-10T15:55:26.203Z,100956.75
2022-10-10T15:57:53.579Z,100951.69
2022-10-10T16:00:22.549Z,100952.53
2022-10-10T16:02:49.947Z,100958.56
2022-10-10T16:05:17.355Z,100958.44
2022-10-10T16:07:48.291Z,100954.06
2022-10-10T16:10:16.041Z,100953.09
2022-10-10T16:12:43.496Z,100949.44
2022-10-10T16:15:11.262Z,100951.41
2022-10-10T16:17:40.461Z,100952.22
2022-10-10T16:20:08.881Z,100954.91
2022-10-10T16:22:36.393Z,100956.88
2022-10-10T16:25:21.167Z,100951.81
2022-10-10T16:27:49.129Z,100957.88
2022-10-10T16:30:16.900Z,100952.53
2022-10-10T16:32:45.756Z,100960.69
2022-10-10T16:35:13.202Z,100950.97
2022-10-10T16:37:40.623Z,100961.09
2022-10-10T16:40:09.025Z,100960.97
2022-10-10T16:42:36.606Z,100959.13
2022-10-10T16:45:04.312Z,100952.78
2022-10-10T16:47:31.849Z,100946.75
2022-10-10T16:50:00.788Z,100956.75
2022-10-10T16:52:28.263Z,100962.91
2022-10-10T16:57:23.090Z,100957.56
2022-10-10T16:59:50.597Z,100955.22
2022-10-10T17:02:18.192Z,100961.53
2022-10-10T17:04:45.797Z,100951.69
2022-10-10T17:09:41.945Z,100958.16
2022-10-10T17:12:09.404Z,100960.56
2022-10-10T17:14:37.004Z,100957.88
2022-10-10T17:17:13.314Z,100952.81
2022-10-10T17:19:41.327Z,100963.91
2022-10-10T17:22:08.881Z,100964.75
2022-10-10T17:24:37.837Z,100954.22
2022-10-10T17:27:05.424Z,100961.25
2022-10-10T17:29:32.959Z,100962.22
2022-10-10T17:32:05.566Z,100958.03
2022-10-10T17:34:33.934Z,100965.88
2022-10-10T17:37:01.472Z,100959.53
2022-10-10T17:41:57.487Z,100959.81
2022-10-10T17:44:24.936Z,100966.84
2022-10-10T17:46:52.406Z,100969.53
2022-10-10T17:51:47.602Z,100968.69
2022-10-10T17:54:14.966Z,100961.66
2022-10-10T17:56:44.447Z,100961.66
2022-10-10T17:59:13.195Z,100962.81
2022-10-10T18:01:40.654Z,100963.91
2022-10-10T18:04:08.337Z,100959.41
2022-10-10T18:06:37.538Z,100964.59
2022-10-10T18:09:05.704Z,100958.44
2022-10-10T18:11:33.110Z,100964.47
2022-10-10T18:14:01.231Z,100967.13
2022-10-10T18:16:30.714Z,100967.00
2022-10-10T18:18:58.825Z,100967.13
2022-10-10T18:21:26.204Z,100970.50
2022-10-10T18:23:53.584Z,100969.53
2022-10-10T18:26:22.041Z,100968.41
2022-10-10T18:28:49.550Z,100961.81
2022-10-10T18:31:17.696Z,100974.16
2022-10-10T18:33:46.499Z,100979.94
2022-10-10T18:36:14.437Z,100984.03
2022-10-10T18:38:41.907Z,100985.13
2022-10-10T18:41:10.132Z,100975.28
2022-10-10T18:43:39.482Z,100981.63
2022-10-10T18:46:07.923Z,100983.44
2022-10-10T18:48:35.887Z,100991.75
2022-10-10T18:51:05.569Z,100995.09
2022-10-10T18:53:36.161Z,100997.78
2022-10-10T18:56:03.712Z,100999.75
2022-10-10T18:58:31.172Z,100998.75
2022-10-10T19:00:59.382Z,101005.91
2022-10-10T19:03:26.867Z,101012.09
2022-10-10T19:05:54.308Z,101014.75
2022-10-10T19:08:23.070Z,101017.44
2022-10-10T19:10:50.687Z,101007.63
2022-10-10T19:13:18.339Z,101017.56
2022-10-10T19:15:47.061Z,101021.78
2022-10-10T19:18:14.445Z,101022.75
2022-10-10T19:20:41.854Z,101014.06
2022-10-10T19:23:09.547Z,101026.72
2022-10-10T19:25:39.321Z,101033.72
2022-10-10T19:28:07.010Z,101029.66
2022-10-10T19:30:35.337Z,101039.22
2022-10-10T19:33:02.713Z,101034.84
2022-10-10T19:35:30.102Z,101042.03
2022-10-10T19:37:57.484Z,101044.56
2022-10-10T19:40:24.969Z,101039.91
2022-10-10T19:42:53.725Z,101043.41
2022-10-10T19:45:21.145Z,101049.59
2022-10-10T19:47:48.552Z,101050.03
2022-10-10T19:50:16.015Z,101050.59
2022-10-10T19:52:43.490Z,101059.28
2022-10-10T19:55:11.259Z,101053.13
2022-10-10T19:57:38.668Z,101055.06
2022-10-10T20:00:08.624Z,101058.03
2022-10-10T20:02:38.883Z,101056.19
2022-10-10T20:05:06.931Z,101056.75
2022-10-10T20:07:34.332Z,101061.41
2022-10-10T20:10:01.777Z,101068.84
2022-10-10T20:12:29.165Z,101070.81
2022-10-10T20:14:56.548Z,101068.25
2022-10-10T20:17:25.353Z,101075.56
2022-10-10T20:19:52.880Z,101078.50
2022-10-10T20:22:20.377Z,101079.38
2022-10-10T20:24:47.752Z,101084.72
2022-10-10T20:27:15.149Z,101083.16
2022-10-10T20:29:42.694Z,101079.66
2022-10-10T20:32:10.110Z,101091.28
2022-10-10T20:34:38.826Z,101094.81
2022-10-10T20:37:06.211Z,101088.63
2022-10-10T20:39:33.603Z,101098.47
2022-10-10T20:42:01.019Z,101089.75
2022-10-10T20:44:28.645Z,101102.22
2022-10-10T20:46:56.044Z,101104.75
2022-10-10T20:49:23.620Z,101099.72
2022-10-10T20:51:52.398Z,101107.56
2022-10-10T20:54:21.907Z,101112.78
2022-10-10T20:56:49.624Z,101120.50
2022-10-10T20:59:17.043Z,101130.09
2022-10-10T21:01:45.659Z,101140.88
2022-10-10T21:04:13.886Z,101140.63
2022-10-10T21:06:42.540Z,101148.63
2022-10-10T21:09:12.216Z,101150.88
2022-10-10T21:11:39.898Z,101161.28
2022-10-10T21:14:07.315Z,101164.34
2022-10-10T21:16:35.680Z,101158.31
2022-10-10T21:19:03.065Z,101175.88
2022-10-10T21:21:30.845Z,101178.97
2022-10-10T21:23:58.344Z,101178.13
2022-10-10T21:26:27.817Z,101178.97
2022-10-10T21:28:55.406Z,101176.19
2022-10-10T21:31:24.355Z,101182.22
2022-10-10T21:33:51.765Z,101176.88
2022-10-10T21:36:19.736Z,101194.69
2022-10-10T21:38:47.457Z,101196.41
2022-10-10T21:41:18.924Z,101199.78
2022-10-10T21:43:48.427Z,101204.16
2022-10-10T21:46:16.992Z,101205.13
2022-10-10T21:48:44.445Z,101206.13
2022-10-10T21:51:11.837Z,101213.56
2022-10-10T21:53:39.224Z,101207.09
2022-10-10T21:56:08.282Z,101223.34
2022-10-10T21:58:36.802Z,101231.25
2022-10-10T22:01:09.407Z,101219.72
2022-10-10T22:03:36.823Z,101225.31
2022-10-10T22:06:05.160Z,101233.47
2022-10-10T22:08:32.760Z,101230.94
2022-10-10T22:11:03.523Z,101236.97
2022-10-10T22:13:30.913Z,101242.31
2022-10-10T22:15:58.369Z,101241.59
2022-10-10T22:18:27.099Z,101243.44
2022-10-10T22:20:54.531Z,101245.13
2022-10-10T22:23:21.906Z,101250.47
2022-10-10T22:25:50.403Z,101247.81
2022-10-10T22:28:18.128Z,101254.81
2022-10-10T22:30:45.533Z,101252.72
2022-10-10T22:33:12.944Z,101252.59
2022-10-10T22:35:41.612Z,101252.59
2022-10-10T22:38:09.008Z,101254.28
2022-10-10T22:40:36.388Z,101256.25
2022-10-10T22:43:03.859Z,101255.38
2022-10-10T22:45:31.231Z,101262.44
2022-10-10T22:47:58.601Z,101254.81
2022-10-10T22:50:26.002Z,101259.88
2022-10-10T22:52:54.666Z,101262.81
2022-10-10T22:55:22.054Z,101259.06
2022-10-10T22:57:49.476Z,101260.72
2022-10-10T23:00:17.912Z,101266.31
2022-10-10T23:02:45.283Z,101266.31
2022-10-10T23:05:12.745Z,101274.19
2022-10-10T23:07:40.123Z,101280.41
2022-10-10T23:10:10.021Z,101277.00
2022-10-10T23:12:37.750Z,101284.88
2022-10-10T23:15:05.798Z,101293.75
2022-10-10T23:17:33.197Z,101305.53
2022-10-10T23:20:00.585Z,101299.34
2022-10-10T23:22:27.965Z,101309.19
2022-10-10T23:24:55.371Z,101319.72
2022-10-10T23:27:24.039Z,101320.13
2022-10-10T23:29:51.465Z,101328.59
2022-10-10T23:32:18.849Z,101339.38
2022-10-10T23:34:46.226Z,101333.66
2022-10-10T23:37:13.627Z,101328.44
2022-10-10T23:39:42.000Z,101346.13
2022-10-10T23:42:09.376Z,101354.69
2022-10-10T23:44:38.058Z,101363.41
2022-10-10T23:47:05.438Z,101367.75
2022-10-10T23:49:33.223Z,101377.47
2022-10-10T23:52:00.676Z,101380.13
2022-10-10T23:54:28.076Z,101389.84
2022-10-10T23:56:55.477Z,101397.84
2022-10-10T23:59:22.861Z,101399.53
